Atlanta, Indiana
Current Conditions -  °F | °C
As of 10:35 PM on Sunday 21 Dec 2014 (Local Time) from KTYQ Reporting Station
Clear Clear  
Wind Chill: 24°   Ceiling: Unl
Heat Index: 31°   Visibility: 7mi
Dew Point: 25°   Wind: 8mph
Humidity: 78%   Direction: 130°SE
Pressure: 30.09"   Gusts: NA
Location:  40.22°N, 86.03°W
Report Text: KTYQ 220335Z AUTO 13007KT 7SM CLR 00/M04 A3009 RMK AO2 T10031037
Loading
Personal Weather Stations






























Interactive Weather Map New forecast layout! Learn more

10-Day Weather Forecast

Advertisements
Track Severe Weather on mobile